Latest Weather Observations for Port Hedland

IDW60801

Issued at 7:03 pm WST Friday 24 November 2017 (issued every 30 minutes, with the page automatically refreshed every 10 minutes)

About weather observations | Map of weather stations | Latest weather observations for WA | Other Formats
Station Details ID: 004032 Name: PORT HEDLAND AIRPORT Lat: -20.37 Lon: 118.63 Height: 6.4 m
Data from the previous 72 hours. | See also: Recent months at Port Hedland
Date/Time
WST
Temp
°C
App
Temp
°C
Dew
Point
°C
Rel
Hum
%
Delta-T
°C
Wind Press
QNH
hPa
Press
MSL
hPa
Rain since
9am
mm
Dir  Spd
km/h
Gust
km/h
Spd
kts
Gust
kts
24/07:00pm 28.9 31.1 23.3 72 3.8 NW 17 20 9 11 1006.6 - 0.0
24/06:30pm 29.5 30.6 22.0 64 5.1 NW 19 22 10 12 1006.1 - 0.0
24/06:00pm 30.2 30.5 21.6 60 5.8 NNW 22 28 12 15 1005.8 1005.7 0.0
24/05:30pm 31.0 31.1 21.8 58 6.2 N 24 30 13 16 1005.7 - 0.0
24/05:00pm 31.3 31.0 22.6 60 5.9 NNW 28 33 15 18 1005.6 - 0.0
24/04:30pm 31.7 31.4 23.2 60 5.9 NNW 30 39 16 21 1005.5 - 0.0
24/04:00pm 32.8 31.6 22.3 54 7.2 NNW 32 39 17 21 1005.5 - 0.0
24/03:30pm 34.5 33.7 20.8 44 9.2 NNW 26 33 14 18 1005.4 - 0.0
24/03:00pm 34.6 34.5 22.3 48 8.5 NNW 26 33 14 18 1005.7 1005.6 0.0
24/02:30pm 35.4 34.0 20.5 41 10.0 N 28 37 15 20 1005.7 - 0.0
24/02:00pm 35.2 34.5 22.5 47 8.7 N 30 39 16 21 1005.7 - 0.0
24/01:30pm 35.2 33.2 19.1 38 10.6 N 28 37 15 20 1005.9 - 0.0
24/01:00pm 35.0 35.2 22.0 46 8.9 N 24 32 13 17 1006.2 - 0.0
24/12:30pm 35.3 35.4 22.6 47 8.8 N 26 35 14 19 1006.3 - 0.0
24/12:00pm 36.7 35.9 20.9 39 10.7 N 26 35 14 19 1006.6 1006.5 0.0
24/11:30am 37.2 34.7 17.2 30 12.9 N 26 32 14 17 1006.8 - 0.0
24/11:00am 37.4 33.9 14.6 25 14.2 NNE 26 30 14 16 1007.1 - 0.0
24/10:30am 37.0 34.5 17.1 31 12.8 NNE 26 32 14 17 1007.4 - 0.0
24/10:00am 35.3 34.8 20.0 40 10.2 NNE 22 28 12 15 1007.7 - 0.0
24/09:30am 33.2 35.0 23.2 55 6.9 N 19 22 10 12 1007.9 - 0.0
24/09:00am 32.8 35.9 24.8 62 5.6 N 17 22 9 12 1008.0 1007.9 0.0
24/08:30am 33.1 35.9 23.7 57 6.5 NE 15 20 8 11 1008.1 - 0.0
24/08:00am 31.1 35.1 25.0 70 4.3 NE 13 17 7 9 1008.1 - 0.0
24/07:30am 29.9 33.8 24.8 74 3.6 NNE 13 17 7 9 1007.8 - 0.0
24/07:00am 29.9 33.3 24.1 71 4.0 NNE 13 17 7 9 1007.5 - 0.0
24/06:30am 29.0 33.0 25.0 79 2.8 N 13 17 7 9 1007.3 - 0.0
24/06:00am 27.7 31.8 23.9 80 2.6 N 9 13 5 7 1007.0 1006.9 0.0
24/05:30am 25.5 29.2 23.2 87 1.6 N 9 11 5 6 1006.8 - 0.0
24/05:00am 26.0 29.1 22.9 83 2.1 N 11 13 6 7 1006.5 - 0.0
24/04:30am 24.4 27.4 21.3 83 2.0 N 7 9 4 5 1006.1 - 0.0
24/04:00am 24.6 28.0 20.9 80 2.4 ENE 4 9 2 5 1005.7 - 0.0
24/03:30am 24.2 27.3 21.1 83 2.0 N 6 7 3 4 1005.5 - 0.0
24/03:00am 24.8 28.2 21.7 83 2.1 N 6 9 3 5 1005.5 1005.4 0.0
24/02:30am 24.9 27.0 21.0 79 2.6 N 11 11 6 6 1005.4 - 0.0
24/02:00am 25.9 28.8 21.1 75 3.2 NNE 7 11 4 6 1005.5 - 0.0
24/01:30am 25.3 28.6 20.8 76 3.0 E 4 11 2 6 1005.5 - 0.0
24/01:00am 25.7 27.8 20.9 75 3.2 SW 11 17 6 9 1005.4 - 0.0
24/12:30am 26.6 30.1 22.2 77 3.0 NW 7 19 4 10 1005.6 - 0.0
24/12:00am 26.3 29.6 21.5 75 3.2 N 6 9 3 5 1005.3 1005.2 0.0
 
Date/Time
WST
Temp
°C
App
Temp
°C
Dew
Point
°C
Rel
Hum
%
Delta-T
°C
Wind Press
QNH
hPa
Press
MSL
hPa
Rain since
9am
mm
Dir  Spd
km/h
Gust
km/h
Spd
kts
Gust
kts
23/11:30pm 26.5 31.0 21.5 74 3.3 CALM 0 2 0 1 1005.2 - 0.0
23/11:00pm 26.5 29.6 21.5 74 3.3 WSW 7 9 4 5 1005.3 - 0.0
23/10:30pm 26.9 30.1 21.6 72 3.5 WSW 7 9 4 5 1005.6 - 0.0
23/10:00pm 27.2 30.2 21.9 73 3.6 SW 9 13 5 7 1005.6 - 0.0
23/09:30pm 27.5 30.6 22.2 73 3.6 WSW 9 11 5 6 1005.5 - 0.0
23/09:00pm 27.8 31.1 22.5 73 3.6 SW 9 11 5 6 1005.3 1005.2 0.0
23/08:30pm 28.5 31.9 22.7 71 3.9 W 9 13 5 7 1005.1 - 0.0
23/08:00pm 28.7 31.6 22.4 68 4.3 WNW 11 15 6 8 1004.7 - 0.0
23/07:30pm 28.9 31.8 23.1 71 4.0 WNW 13 19 7 10 1004.3 - 0.0
23/07:00pm 29.3 32.0 23.5 71 4.0 NW 15 20 8 11 1003.9 - 0.0
23/06:30pm 29.8 31.7 23.5 69 4.3 NW 19 22 10 12 1003.4 - 0.0
23/06:00pm 30.8 32.0 23.2 64 5.2 NNW 22 28 12 15 1003.1 1003.0 0.0
23/05:30pm 31.7 31.5 22.1 56 6.5 NNW 26 32 14 17 1002.8 - 0.0
23/05:00pm 32.6 31.9 21.8 53 7.3 NNW 28 33 15 18 1002.6 - 0.0
23/04:30pm 33.5 33.3 22.0 51 7.8 NNW 26 33 14 18 1002.6 - 0.0
23/04:00pm 34.2 33.4 20.9 45 9.0 NNW 26 35 14 19 1002.6 - 0.0
23/03:30pm 34.7 33.6 21.0 44 9.2 NNW 28 33 15 18 1002.8 - 0.0
23/03:00pm 34.5 34.0 21.5 46 8.9 NNW 26 32 14 17 1003.0 1002.9 0.0
23/02:30pm 34.2 33.6 21.9 48 8.4 N 28 33 15 18 1003.2 - 0.0
23/02:00pm 35.0 34.4 22.0 46 8.9 NNW 28 33 15 18 1003.4 - 0.0
23/01:30pm 35.0 34.8 22.0 46 8.9 N 26 33 14 18 1003.7 - 0.0
23/01:00pm 36.2 36.2 22.4 45 9.5 NNW 26 32 14 17 1004.1 - 0.0
23/12:30pm 35.9 36.5 22.1 44 9.5 NNW 22 30 12 16 1004.4 - 0.0
23/12:00pm 36.0 36.3 20.3 40 10.6 N 19 26 10 14 1004.6 1004.5 0.0
23/11:30am 36.1 36.2 19.1 36 11.2 N 17 24 9 13 1004.9 - 0.0
23/11:00am 38.0 36.7 16.9 29 13.6 NNE 19 26 10 14 1005.4 - 0.0
23/10:30am 39.6 37.0 13.2 21 16.3 E 19 32 10 17 1005.8 - 0.0
23/10:00am 37.8 34.7 14.4 25 14.6 E 24 35 13 19 1006.2 - 0.0
23/09:30am 37.1 33.8 15.0 27 13.9 E 26 35 14 19 1006.5 - 0.0
23/09:00am 35.3 32.8 18.0 36 11.3 E 28 43 15 23 1007.0 1006.9 0.0
23/08:30am 33.7 33.9 20.5 46 8.8 E 20 28 11 15 1007.2 - 0.0
23/08:00am 30.2 33.6 23.4 67 4.7 NE 11 17 6 9 1007.3 - 0.0
23/07:30am 30.0 33.5 24.2 71 4.0 ENE 13 17 7 9 1007.2 - 0.0
23/07:00am 29.1 32.0 24.4 76 3.3 E 17 20 9 11 1007.0 - 0.0
23/06:30am 27.6 31.2 23.8 80 2.6 ESE 11 15 6 8 1006.9 - 0.0
23/06:00am 26.0 29.7 23.3 85 1.8 ESE 9 13 5 7 1006.3 1006.2 0.0
23/05:30am 26.4 30.1 23.3 83 2.1 ENE 9 13 5 7 1005.8 - 0.0
23/05:00am 26.7 30.2 23.6 83 2.1 N 11 17 6 9 1005.1 - 0.0
23/04:30am 27.3 29.4 23.7 81 2.5 N 19 26 10 14 1004.5 - 0.0
23/04:00am 27.4 29.4 23.6 80 2.6 NNE 19 24 10 13 1004.4 - 0.0
23/03:30am 27.2 29.1 23.4 80 2.6 NNE 19 24 10 13 1004.4 - 0.0
23/03:00am 26.9 29.6 23.4 81 2.4 N 15 20 8 11 1004.1 1004.0 0.0
23/02:30am 26.5 29.4 23.2 82 2.2 NNE 13 17 7 9 1004.3 - 0.0
23/02:00am 26.4 29.9 23.5 84 2.0 N 11 13 6 7 1003.8 - 0.0
23/01:30am 25.9 30.1 23.2 85 1.8 NNW 6 9 3 5 1003.8 - 0.0
23/01:00am 25.3 30.0 22.0 82 2.2 CALM 0 0 0 0 1004.1 - 0.0
23/12:30am 25.6 30.8 22.9 85 1.8 CALM 0 0 0 0 1004.2 - 0.0
23/12:00am 26.2 30.5 23.3 84 2.0 NW 6 7 3 4 1004.5 1004.4 0.0
 
Date/Time
WST
Temp
°C
App
Temp
°C
Dew
Point
°C
Rel
Hum
%
Delta-T
°C
Wind Press
QNH
hPa
Press
MSL
hPa
Rain since
9am
mm
Dir  Spd
km/h
Gust
km/h
Spd
kts
Gust
kts
22/11:30pm 26.2 29.9 23.3 84 2.0 WNW 9 13 5 7 1004.6 - 0.0
22/11:00pm 26.6 29.7 23.5 83 2.1 W 13 17 7 9 1004.9 - 0.0
22/10:30pm 26.6 30.3 23.9 85 1.9 WSW 11 15 6 8 1004.9 - 0.0
22/10:00pm 27.4 29.6 24.0 82 2.3 W 19 26 10 14 1004.8 - 0.0
22/09:30pm 27.4 30.6 24.3 83 2.1 W 15 19 8 10 1004.5 - 0.0
22/09:00pm 27.4 31.0 24.3 83 2.2 WNW 13 19 7 10 1004.6 1004.5 0.0
22/08:30pm 27.7 30.1 24.3 82 2.4 WNW 19 24 10 13 1004.2 - 0.0
22/08:00pm 27.9 30.7 24.3 81 2.5 W 17 24 9 13 1004.0 - 0.0
22/07:30pm 28.2 30.2 24.0 78 2.9 NW 20 28 11 15 1003.4 - 0.0
22/07:00pm 28.5 30.5 23.9 76 3.2 NW 20 24 11 13 1002.9 - 0.0
22/06:30pm 29.0 29.9 23.4 72 3.8 NW 24 30 13 16 1002.4 - 0.0
22/06:00pm 30.3 31.5 22.5 63 5.3 NW 20 24 11 13 1002.1 1002.0 0.0
22/05:30pm 30.9 30.7 22.8 62 5.5 NNW 28 33 15 18 1001.8 - 0.0
22/05:00pm 32.2 32.5 22.9 58 6.4 NNW 26 32 14 17 1001.6 - 0.0
22/04:30pm 32.5 33.3 23.2 58 6.4 NW 24 30 13 16 1001.6 - 0.0
22/04:00pm 33.3 33.1 22.7 53 7.3 NNW 28 33 15 18 1001.5 - 0.0
22/03:30pm 33.3 32.8 23.6 56 6.7 NNW 32 39 17 21 1001.5 - 0.0
22/03:00pm 34.3 34.1 22.7 50 8.0 NNW 28 35 15 19 1001.9 1001.8 0.0
22/02:30pm 34.0 33.6 23.1 53 7.5 NNW 30 35 16 19 1002.1 - 0.0
22/02:00pm 34.1 35.1 22.8 51 7.8 N 22 28 12 15 1002.3 - 0.0
22/01:30pm 34.0 35.5 24.3 57 6.8 N 24 30 13 16 1002.6 - 0.0
22/01:00pm 33.8 36.1 24.4 58 6.6 NNW 20 26 11 14 1003.0 - 0.0
22/12:30pm 32.8 34.7 23.7 58 6.3 NNW 20 28 11 15 1003.5 - 0.0
22/12:00pm 33.1 34.9 24.3 60 6.2 N 22 28 12 15 1003.8 1003.7 0.0
22/11:30am 32.5 34.9 24.3 62 5.7 N 19 26 10 14 1004.2 - 0.0
22/11:00am 33.8 36.3 23.8 56 7.0 N 17 22 9 12 1004.5 - 0.0
22/10:30am 34.5 37.4 23.2 51 7.8 N 13 17 7 9 1004.9 - 0.0
22/10:00am 33.7 36.3 24.0 57 6.8 NNE 17 24 9 13 1005.3 - 0.0
22/09:30am 34.2 36.8 22.6 50 8.0 NNE 13 17 7 9 1005.4 - 0.0
22/09:00am 33.8 36.3 20.2 44 9.1 S 7 11 4 6 1005.8 1005.7 0.0
22/08:30am 32.3 34.4 20.9 51 7.6 SW 11 17 6 9 1005.8 - 0.0
22/08:00am 31.0 33.3 22.0 58 6.1 W 13 20 7 11 1005.7 - 0.0
22/07:30am 29.9 32.8 23.1 67 4.7 W 13 20 7 11 1005.7 - 0.0
22/07:00am 28.9 31.5 23.3 72 3.8 W 15 17 8 9 1005.7 - 0.0
22/06:30am 27.7 31.4 23.3 77 3.0 W 9 13 5 7 1005.5 - 0.0
22/06:00am 25.8 30.5 22.7 83 2.1 WNW 2 6 1 3 1005.4 1005.3 0.0
22/05:30am 24.9 29.1 22.4 86 1.7 S 4 9 2 5 1005.1 - 0.0
22/05:00am 24.4 27.1 22.1 87 1.5 W 11 15 6 8 1004.7 - 0.0
22/04:30am 24.8 27.2 22.3 86 1.7 WNW 13 13 7 7 1004.3 - 0.0
22/04:00am 25.4 27.9 22.5 84 2.0 NNW 13 15 7 8 1004.3 - 0.0
22/03:30am 25.4 28.0 22.7 85 1.8 NW 13 17 7 9 1004.2 - 0.0
22/03:00am 25.8 28.7 21.7 78 2.7 N 9 11 5 6 1004.5 1004.4 0.0
22/02:30am 25.4 27.7 21.3 78 2.7 NNW 11 13 6 7 1004.7 - 0.0
22/02:00am 24.8 26.8 20.7 78 2.7 WNW 11 15 6 8 1004.7 - 0.0
22/01:30am 25.2 27.8 20.5 75 3.1 WSW 7 9 4 5 1005.0 - 0.0
22/01:00am 25.5 27.7 20.3 73 3.4 WNW 9 11 5 6 1005.1 - 0.0
22/12:30am 25.7 27.6 20.5 73 3.4 W 11 13 6 7 1005.5 - 0.0
22/12:00am 26.7 28.1 20.3 68 4.2 WNW 13 15 7 8 1005.4 1005.3 0.0
 
Date/Time
WST
Temp
°C
App
Temp
°C
Dew
Point
°C
Rel
Hum
%
Delta-T
°C
Wind Press
QNH
hPa
Press
MSL
hPa
Rain since
9am
mm
Dir  Spd
km/h
Gust
km/h
Spd
kts
Gust
kts
21/11:30pm 26.6 28.4 20.4 69 4.1 W 11 15 6 8 1005.5 - 0.0
21/11:00pm 26.8 28.2 20.4 68 4.2 WSW 13 13 7 7 1005.6 - 0.0
21/10:30pm 27.3 28.8 20.6 67 4.4 W 13 15 7 8 1005.8 - 0.0
21/10:00pm 27.6 28.9 20.9 67 4.4 WNW 15 19 8 10 1005.8 - 0.0
21/09:30pm 28.3 28.8 20.8 63 5.0 W 19 24 10 13 1005.7 - 0.0
21/09:00pm 28.5 29.1 21.0 64 5.0 W 19 24 10 13 1005.6 1005.5 0.0
21/08:30pm 28.9 29.4 20.9 62 5.3 WNW 19 26 10 14 1005.4 - 0.0
21/08:00pm 28.7 29.7 21.7 66 4.7 WNW 19 26 10 14 1005.2 - 0.0
21/07:30pm 28.8 29.6 21.3 64 5.0 WNW 19 24 10 13 1005.0 - 0.0

Other Formats:

Comma delimited format used in spreadsheet applications
http://www.bom.gov.au/fwo/IDW60801/IDW60801.94312.axf

JavaScript Object Notation format (JSON) in row-major order
http://www.bom.gov.au/fwo/IDW60801/IDW60801.94312.json